Turret, Colorado
Current Conditions -  °F | °C
As of 9:15 AM on Sunday 25 Jan 2015 (Local Time) from KANK Reporting Station
Clear Clear  
Wind Chill: 36°   Ceiling: Unl
Heat Index: 41°   Visibility: 10mi
Dew Point: 20°   Wind: 9mph
Humidity: 42%   Direction: 300°WNW
Pressure: 30.36"   Gusts: NA
Location:  38.5561°N, 106.066°W
Report Text: KANK 251615Z AUTO 30008KT 10SM CLR 05/M07 A3036 RMK AO1 T00521067
Loading
Personal Weather Stations






























Interactive Weather Map New forecast layout! Learn more

10-Day Weather Forecast

Advertisements
Track Severe Weather on mobile